Acme, Louisiana
Current Conditions -  °F | °C
As of 7:27 AM on Friday 19 Dec 2014 (Local Time) from KESF Reporting Station
Light Rain Light Rain  
Wind Chill: 52°   Ceiling: 1000
Heat Index: 52°   Visibility: 10mi
Dew Point: 50°   Wind: 3mph
Humidity: 93%   Direction: 10°N
Pressure: 30.14"   Gusts: NA
Location:  31.29°N, 91.82°W
Report Text: KESF 191327Z AUTO 01003KT 10SM -RA BKN010 OVC017 11/10 A3014 RMK AO2 PRESRR P0001 T01110100
Loading
Personal Weather Stations






























Interactive Weather Map New forecast layout! Learn more

10-Day Weather Forecast

Advertisements
Track Severe Weather on mobile